Time;durP1;ratioP1;P1;durP2;ratioP2;P2;SDS_P1;SDS_P2;PMS_P1;PMS_P2;Temp;Humidity;BMP_temperature;BMP_pressure;BME280_temperature;BME280_humidity;BME280_pressure;Samples;Min_cycle;Max_cycle;Signal;HPM_P1;HPM_P2
2021/07/04 00:00:26;;;;;;;13.93;9.95;;;17.50;99.90;;;;;;5059668;28;20021;-76
2021/07/04 00:02:53;;;;;;;10.90;9.27;;;17.50;99.90;;;;;;5057327;28;20025;-75
2021/07/04 00:05:22;;;;;;;12.30;9.05;;;17.70;99.90;;;;;;5041913;28;20075;-76
2021/07/04 00:07:47;;;;;;;11.25;9.82;;;17.60;99.90;;;;;;5052658;28;20021;-76
2021/07/04 00:10:19;;;;;;;12.75;9.88;;;17.50;99.90;;;;;;5053098;28;20025;-76
2021/07/04 00:12:45;;;;;;;17.55;9.15;;;17.60;99.90;;;;;;5052218;28;20025;-76
2021/07/04 00:15:14;;;;;;;11.90;9.73;;;17.50;99.90;;;;;;5052415;28;20040;-77
2021/07/04 00:17:39;;;;;;;12.55;9.13;;;17.30;99.90;;;;;;5053446;28;20070;-77
2021/07/04 00:20:08;;;;;;;9.80;8.50;;;17.40;99.90;;;;;;5053560;28;20025;-76
2021/07/04 00:22:34;;;;;;;10.13;8.82;;;17.50;99.90;;;;;;5054101;28;20033;-76
2021/07/04 00:24:59;;;;;;;10.90;9.30;;;17.50;99.90;;;;;;5048768;28;20045;-76
2021/07/04 00:27:25;;;;;;;13.30;9.57;;;17.40;99.90;;;;;;5046925;28;20029;-77
2021/07/04 00:29:50;;;;;;;9.93;8.73;;;17.40;99.90;;;;;;5050404;28;20017;-76
2021/07/04 00:32:16;;;;;;;10.85;8.48;;;17.30;99.90;;;;;;5051704;28;20425;-76
2021/07/04 00:34:41;;;;;;;12.45;9.63;;;17.30;99.90;;;;;;5051719;28;20071;-76
2021/07/04 00:37:07;;;;;;;12.05;9.57;;;17.30;99.90;;;;;;5050641;28;20071;-76
2021/07/04 00:39:32;;;;;;;12.85;9.77;;;17.30;99.90;;;;;;5051515;28;20060;-76
2021/07/04 00:41:58;;;;;;;12.90;9.57;;;16.30;99.90;;;;;;5051449;28;20507;-76
2021/07/04 00:44:23;;;;;;;11.38;9.80;;;16.50;99.90;;;;;;5051114;28;20543;-76
2021/07/04 00:46:49;;;;;;;12.57;9.93;;;16.30;99.90;;;;;;5051236;28;20108;-76
2021/07/04 00:49:14;;;;;;;11.90;9.95;;;16.60;99.90;;;;;;5051285;28;20060;-76
2021/07/04 00:51:40;;;;;;;13.73;9.75;;;16.80;99.90;;;;;;5051278;28;20108;-77
2021/07/04 00:54:05;;;;;;;14.15;10.00;;;16.90;99.90;;;;;;5055224;28;20029;-77
2021/07/04 00:56:31;;;;;;;12.15;10.05;;;17.00;99.90;;;;;;5055259;28;20025;-77
2021/07/04 00:58:57;;;;;;;10.95;8.88;;;16.90;99.90;;;;;;5053375;28;20017;-76
2021/07/04 01:01:22;;;;;;;14.35;11.05;;;17.00;99.90;;;;;;5051681;28;20080;-76
2021/07/04 01:03:48;;;;;;;15.75;11.65;;;17.00;99.90;;;;;;5050248;28;20399;-76
2021/07/04 01:06:13;;;;;;;18.30;11.70;;;16.60;99.90;;;;;;5050666;28;20372;-75
2021/07/04 01:08:39;;;;;;;13.93;11.80;;;16.50;99.90;;;;;;5051891;28;20454;-76
2021/07/04 01:11:05;;;;;;;13.55;10.95;;;16.50;99.90;;;;;;5051122;28;20379;-77
2021/07/04 01:13:31;;;;;;;15.40;12.35;;;16.70;99.90;;;;;;5054181;28;20021;-76
2021/07/04 01:15:59;;;;;;;13.35;11.95;;;16.70;99.90;;;;;;5055135;28;20021;-76
2021/07/04 01:18:25;;;;;;;14.48;12.88;;;16.80;99.90;;;;;;5056953;28;20025;-76
2021/07/04 01:20:52;;;;;;;13.80;12.13;;;16.70;99.90;;;;;;5055033;28;20024;-76
2021/07/04 01:23:17;;;;;;;18.63;12.73;;;16.50;99.90;;;;;;5054534;28;20104;-75
2021/07/04 01:25:48;;;;;;;19.02;13.50;;;16.10;99.90;;;;;;5054153;28;20092;-75
2021/07/04 01:28:14;;;;;;;18.88;13.02;;;16.00;99.90;;;;;;5055005;28;20017;-76
2021/07/04 01:30:41;;;;;;;15.25;12.63;;;16.10;99.90;;;;;;5054546;28;20127;-76
2021/07/04 01:33:07;;;;;;;17.83;13.73;;;16.10;99.90;;;;;;5053136;28;20018;-76
2021/07/04 01:35:32;;;;;;;17.52;13.38;;;16.10;99.90;;;;;;5054244;28;20032;-76
2021/07/04 01:37:58;;;;;;;15.68;12.75;;;16.10;99.90;;;;;;5054473;28;20025;-76
2021/07/04 01:40:24;;;;;;;15.95;13.00;;;16.30;99.90;;;;;;5053055;28;20035;-76
2021/07/04 01:42:51;;;;;;;15.98;12.52;;;16.40;99.90;;;;;;5054498;28;20059;-76
2021/07/04 01:45:18;;;;;;;16.75;12.88;;;16.30;99.90;;;;;;5053939;28;20025;-76
2021/07/04 01:47:45;;;;;;;17.85;13.18;;;16.10;99.90;;;;;;5054092;28;20029;-76
2021/07/04 01:50:19;;;;;;;18.67;14.13;;;16.00;99.90;;;;;;5054463;28;20028;-76
2021/07/04 01:52:45;;;;;;;18.92;13.60;;;15.90;99.90;;;;;;5054281;28;20116;-76
2021/07/04 01:55:12;;;;;;;17.25;13.68;;;15.90;99.90;;;;;;5053801;28;20025;-76
2021/07/04 01:57:38;;;;;;;15.80;13.45;;;16.10;99.90;;;;;;5052794;28;20033;-76
2021/07/04 02:00:17;;;;;;;17.85;13.77;;;16.00;99.90;;;;;;5053975;28;20033;-76
2021/07/04 02:02:45;;;;;;;18.10;14.13;;;15.90;99.90;;;;;;5054256;28;20051;-76
2021/07/04 02:05:11;;;;;;;16.15;13.38;;;15.80;99.90;;;;;;5052563;28;20025;-76
2021/07/04 02:07:36;;;;;;;18.35;13.23;;;15.60;99.90;;;;;;5053934;28;20021;-76
2021/07/04 02:10:05;;;;;;;16.70;13.27;;;15.60;99.90;;;;;;5052605;28;20394;-77
2021/07/04 02:12:30;;;;;;;15.50;13.88;;;15.60;99.90;;;;;;5054291;28;20068;-77
2021/07/04 02:14:56;;;;;;;19.42;12.85;;;15.60;99.90;;;;;;5055719;28;20033;-77
2021/07/04 02:17:22;;;;;;;19.08;12.95;;;15.80;99.90;;;;;;5054266;28;20078;-77
2021/07/04 02:19:48;;;;;;;16.80;12.70;;;16.10;99.90;;;;;;5054153;28;20024;-77
2021/07/04 02:22:13;;;;;;;18.55;12.93;;;16.10;99.90;;;;;;5055277;28;20029;-77
2021/07/04 02:24:39;;;;;;;15.57;12.60;;;16.20;99.90;;;;;;5053868;28;20124;-77
2021/07/04 02:27:06;;;;;;;15.40;12.00;;;16.30;99.90;;;;;;5055600;28;20541;-76
2021/07/04 02:29:32;;;;;;;17.00;12.18;;;16.40;99.90;;;;;;5053790;28;20043;-76
2021/07/04 02:31:57;;;;;;;17.67;12.55;;;16.50;99.90;;;;;;5053526;28;20479;-75
2021/07/04 02:34:23;;;;;;;17.30;13.43;;;16.10;99.90;;;;;;5053068;28;20042;-75
2021/07/04 02:36:48;;;;;;;17.20;12.25;;;16.10;99.90;;;;;;5053134;28;20110;-75
2021/07/04 02:39:14;;;;;;;16.73;11.38;;;15.90;99.90;;;;;;5053140;28;20040;-75
2021/07/04 02:41:43;;;;;;;574.88;60.05;;;16.00;99.90;;;;;;5053105;28;20025;-75
2021/07/04 02:44:09;;;;;;;26.88;21.17;;;16.20;99.90;;;;;;5052911;28;20562;-75
2021/07/04 02:46:37;;;;;;;14.90;12.38;;;16.30;99.90;;;;;;5052732;28;20387;-75
2021/07/04 02:49:02;;;;;;;14.73;12.38;;;16.30;99.90;;;;;;5052931;28;20075;-75
2021/07/04 02:51:28;;;;;;;16.48;12.23;;;16.10;99.90;;;;;;5052835;28;20014;-74
2021/07/04 02:53:54;;;;;;;14.13;11.50;;;16.10;99.90;;;;;;5051592;28;20082;-76
2021/07/04 02:56:19;;;;;;;14.07;12.15;;;16.30;99.90;;;;;;5051294;28;20048;-76
2021/07/04 02:58:46;;;;;;;14.35;12.07;;;16.50;99.90;;;;;;5051601;28;20043;-76
2021/07/04 03:01:11;;;;;;;14.40;12.18;;;16.40;99.90;;;;;;5052556;28;20025;-76
2021/07/04 03:03:37;;;;;;;14.15;12.15;;;16.10;99.90;;;;;;5051951;28;20040;-76
2021/07/04 03:06:02;;;;;;;14.55;11.35;;;16.20;99.90;;;;;;5053367;28;20025;-76
2021/07/04 03:08:28;;;;;;;14.40;12.18;;;16.30;99.90;;;;;;5054309;28;20572;-76
2021/07/04 03:10:53;;;;;;;13.23;11.45;;;16.30;99.90;;;;;;5054858;28;20540;-76
2021/07/04 03:13:19;;;;;;;15.30;12.18;;;16.40;99.90;;;;;;5052490;28;20025;-75
2021/07/04 03:15:45;;;;;;;12.90;11.45;;;16.40;99.90;;;;;;5052152;28;20029;-75
2021/07/04 03:18:10;;;;;;;14.32;11.70;;;16.40;99.90;;;;;;5052387;28;20017;-75
2021/07/04 03:20:36;;;;;;;13.20;11.50;;;16.50;99.90;;;;;;5052293;28;20077;-76
2021/07/04 03:23:01;;;;;;;13.60;11.82;;;16.50;99.90;;;;;;5052344;28;20114;-75
2021/07/04 03:25:27;;;;;;;14.80;11.90;;;16.50;99.90;;;;;;5050566;28;20112;-76
2021/07/04 03:27:53;;;;;;;16.00;12.60;;;16.60;99.90;;;;;;5051020;28;20036;-76
2021/07/04 03:30:21;;;;;;;13.85;11.35;;;16.60;99.90;;;;;;5052157;28;20021;-76
2021/07/04 03:32:48;;;;;;;14.00;11.93;;;16.70;99.90;;;;;;5052451;28;20036;-77
2021/07/04 03:35:15;;;;;;;16.70;13.15;;;16.80;99.90;;;;;;5051940;28;20090;-76
2021/07/04 03:37:43;;;;;;;13.98;11.90;;;16.70;99.90;;;;;;5052308;28;20028;-76
2021/07/04 03:40:11;;;;;;;15.38;12.48;;;16.70;99.90;;;;;;5052111;28;20032;-76
2021/07/04 03:42:36;;;;;;;13.93;12.27;;;16.80;99.90;;;;;;5056295;28;20031;-77
2021/07/04 03:45:03;;;;;;;15.18;12.73;;;16.70;99.90;;;;;;5056003;28;20020;-77
2021/07/04 03:47:29;;;;;;;15.75;12.07;;;16.70;99.90;;;;;;5058785;28;20033;-77
2021/07/04 03:49:55;;;;;;;13.88;12.07;;;16.60;99.90;;;;;;5057112;28;20017;-76
2021/07/04 03:52:22;;;;;;;15.10;12.25;;;16.60;99.90;;;;;;5052243;28;20101;-76
2021/07/04 03:54:48;;;;;;;16.60;12.95;;;16.60;99.90;;;;;;5052763;28;20486;-77
2021/07/04 03:57:22;;;;;;;13.63;12.18;;;16.60;99.90;;;;;;5040863;28;20167;-76
2021/07/04 03:59:56;;;;;;;16.98;12.93;;;16.60;99.90;;;;;;5058124;28;20112;-77
2021/07/04 04:02:22;;;;;;;15.98;12.32;;;16.90;99.90;;;;;;5055423;28;20025;-77
2021/07/04 04:04:48;;;;;;;17.17;12.85;;;16.90;99.90;;;;;;5052955;28;20035;-77
2021/07/04 04:07:14;;;;;;;14.88;12.68;;;16.90;99.90;;;;;;5051550;28;20025;-77
2021/07/04 04:09:40;;;;;;;14.80;12.75;;;16.90;99.90;;;;;;5056893;28;20073;-77
2021/07/04 04:12:05;;;;;;;15.00;12.85;;;17.00;99.90;;;;;;5056985;28;20043;-77
2021/07/04 04:14:31;;;;;;;15.45;12.70;;;17.10;99.90;;;;;;5057291;28;20033;-77
2021/07/04 04:16:57;;;;;;;14.80;12.82;;;17.20;99.90;;;;;;5054766;28;20021;-76
2021/07/04 04:19:23;;;;;;;15.35;12.68;;;17.20;99.90;;;;;;5051334;28;20437;-76
2021/07/04 04:21:48;;;;;;;15.40;12.90;;;17.20;99.90;;;;;;5051444;28;20061;-77
2021/07/04 04:24:14;;;;;;;17.58;12.93;;;17.20;99.90;;;;;;5053164;28;20033;-76
2021/07/04 04:26:40;;;;;;;17.88;12.63;;;17.30;99.90;;;;;;5052510;28;20036;-76
2021/07/04 04:29:06;;;;;;;14.05;12.55;;;17.40;99.90;;;;;;5051480;28;20053;-75
2021/07/04 04:31:31;;;;;;;13.27;11.63;;;17.50;99.90;;;;;;5050120;28;20112;-75
2021/07/04 04:33:57;;;;;;;15.32;12.38;;;17.60;99.90;;;;;;5052575;28;20083;-77
2021/07/04 04:36:23;;;;;;;14.45;12.25;;;17.60;99.90;;;;;;5051275;28;20025;-76
2021/07/04 04:38:48;;;;;;;13.93;12.38;;;17.60;99.90;;;;;;5053563;28;20025;-77
2021/07/04 04:41:14;;;;;;;14.80;11.55;;;17.70;99.90;;;;;;5057227;28;20036;-77
2021/07/04 04:43:40;;;;;;;13.82;11.60;;;17.70;99.90;;;;;;5056395;28;20376;-76
2021/07/04 04:46:06;;;;;;;15.80;12.18;;;17.80;99.90;;;;;;5057086;28;20025;-77
2021/07/04 04:48:31;;;;;;;15.82;12.38;;;17.90;99.90;;;;;;5056206;28;20022;-76
2021/07/04 04:50:57;;;;;;;13.68;11.57;;;17.80;99.90;;;;;;5056929;28;20025;-76
2021/07/04 04:53:22;;;;;;;14.00;11.30;;;17.90;99.90;;;;;;5056325;28;20495;-77
2021/07/04 04:55:48;;;;;;;14.88;12.13;;;17.80;99.90;;;;;;5057981;28;20024;-76
2021/07/04 04:58:13;;;;;;;15.15;11.45;;;17.90;99.90;;;;;;5056569;28;20560;-75
2021/07/04 05:00:39;;;;;;;14.57;11.85;;;17.90;99.90;;;;;;5056573;28;20025;-77
2021/07/04 05:03:07;;;;;;;15.00;11.48;;;17.90;99.90;;;;;;5058312;28;20033;-77
2021/07/04 05:05:34;;;;;;;15.93;11.57;;;18.00;99.90;;;;;;5060588;28;20112;-77
2021/07/04 05:08:00;;;;;;;14.73;11.43;;;18.00;99.90;;;;;;5054689;28;20021;-75
2021/07/04 05:10:26;;;;;;;12.88;11.27;;;18.00;99.90;;;;;;5054893;28;20386;-75
2021/07/04 05:12:52;;;;;;;12.98;11.55;;;18.00;99.90;;;;;;5054726;28;20021;-75
2021/07/04 05:15:17;;;;;;;13.13;11.73;;;18.10;99.90;;;;;;5053239;28;20371;-76
2021/07/04 05:17:43;;;;;;;13.15;11.70;;;18.10;99.90;;;;;;5054586;28;20032;-75
2021/07/04 05:20:10;;;;;;;12.90;11.60;;;18.00;99.90;;;;;;5053391;28;20435;-75
2021/07/04 05:22:35;;;;;;;12.52;10.98;;;18.10;99.90;;;;;;5054564;28;20024;-75
2021/07/04 05:25:03;;;;;;;14.48;11.27;;;18.10;99.90;;;;;;5051010;28;20025;-75
2021/07/04 05:27:28;;;;;;;11.95;10.60;;;18.10;99.90;;;;;;5036550;28;20063;-75
2021/07/04 05:29:54;;;;;;;12.70;10.77;;;18.10;99.90;;;;;;5054428;28;20435;-76
2021/07/04 05:32:20;;;;;;;13.02;11.30;;;18.10;99.90;;;;;;5054419;28;20502;-75
2021/07/04 05:34:46;;;;;;;12.73;11.43;;;18.30;99.90;;;;;;5054212;28;20100;-75
2021/07/04 05:37:12;;;;;;;12.93;11.55;;;18.40;99.90;;;;;;5054221;28;20060;-75
2021/07/04 05:39:38;;;;;;;14.27;11.30;;;18.30;99.90;;;;;;5052954;28;20029;-75
2021/07/04 05:42:04;;;;;;;13.23;11.50;;;18.30;99.90;;;;;;5052888;28;20025;-75
2021/07/04 05:44:29;;;;;;;14.00;11.45;;;18.20;99.90;;;;;;5053910;28;20048;-75
2021/07/04 05:46:55;;;;;;;13.80;12.02;;;18.30;99.90;;;;;;5054051;28;20028;-75
2021/07/04 05:49:21;;;;;;;15.23;11.43;;;18.30;99.90;;;;;;5054014;28;20021;-75
2021/07/04 05:51:47;;;;;;;12.80;11.15;;;18.50;99.90;;;;;;5054014;28;20036;-75
2021/07/04 05:54:12;;;;;;;13.93;11.35;;;18.50;99.90;;;;;;5052768;28;20025;-75
2021/07/04 05:56:38;;;;;;;13.30;11.85;;;18.40;99.90;;;;;;5053398;28;20107;-75
2021/07/04 05:59:04;;;;;;;15.32;11.85;;;18.50;99.90;;;;;;5053926;28;20497;-75
2021/07/04 06:01:30;;;;;;;13.23;11.25;;;18.50;99.90;;;;;;5053806;28;20021;-75
2021/07/04 06:03:55;;;;;;;12.98;10.43;;;18.60;99.90;;;;;;5053550;28;20142;-75
2021/07/04 06:06:21;;;;;;;12.98;10.93;;;18.60;99.90;;;;;;5053537;28;20047;-75
2021/07/04 06:08:46;;;;;;;12.43;10.30;;;18.60;99.90;;;;;;5053748;28;20522;-76
2021/07/04 06:11:12;;;;;;;12.50;10.00;;;18.60;99.90;;;;;;5053635;28;20036;-75
2021/07/04 06:13:38;;;;;;;13.05;11.13;;;18.60;99.90;;;;;;5053749;28;20016;-74
2021/07/04 06:16:03;;;;;;;13.80;10.90;;;18.70;99.90;;;;;;5053166;28;20032;-75
2021/07/04 06:18:29;;;;;;;12.02;10.52;;;18.70;99.90;;;;;;5053449;28;20013;-75
2021/07/04 06:20:55;;;;;;;12.82;10.93;;;18.60;99.90;;;;;;5052158;28;20028;-76
2021/07/04 06:23:21;;;;;;;13.60;11.15;;;18.60;99.90;;;;;;5053419;28;20106;-75
2021/07/04 06:25:47;;;;;;;11.75;10.55;;;18.50;99.90;;;;;;5051292;28;20021;-75
2021/07/04 06:28:12;;;;;;;13.57;10.85;;;18.60;99.90;;;;;;5041339;28;20071;-75
2021/07/04 06:30:38;;;;;;;14.98;11.77;;;18.60;99.90;;;;;;5053193;28;20025;-75
2021/07/04 06:33:04;;;;;;;12.07;10.38;;;18.70;99.90;;;;;;5053194;28;20032;-76
2021/07/04 06:35:29;;;;;;;13.20;11.57;;;18.70;99.90;;;;;;5052873;28;20029;-75
2021/07/04 06:37:55;;;;;;;12.35;11.05;;;18.80;99.90;;;;;;5053160;28;20479;-76
2021/07/04 06:40:21;;;;;;;11.30;10.10;;;18.90;99.90;;;;;;5053044;28;20025;-76
2021/07/04 06:42:47;;;;;;;15.00;10.55;;;19.00;99.90;;;;;;5051692;28;20021;-76
2021/07/04 06:45:13;;;;;;;11.00;9.90;;;19.10;99.90;;;;;;5052595;28;20036;-76
2021/07/04 06:47:40;;;;;;;12.27;9.90;;;19.10;99.90;;;;;;5053011;28;20660;-76
2021/07/04 06:50:07;;;;;;;11.52;9.82;;;19.10;99.90;;;;;;5051543;28;20025;-76
2021/07/04 06:52:32;;;;;;;12.05;10.40;;;19.30;99.90;;;;;;5052806;28;20051;-76
2021/07/04 06:54:58;;;;;;;14.75;10.40;;;19.30;99.90;;;;;;5052524;28;20056;-76
2021/07/04 06:57:27;;;;;;;10.38;9.05;;;19.50;99.90;;;;;;5052690;28;20040;-76
2021/07/04 06:59:56;;;;;;;11.73;9.40;;;19.70;99.90;;;;;;5051431;28;20025;-76
2021/07/04 07:02:22;;;;;;;11.57;9.35;;;19.80;99.90;;;;;;5052602;28;20028;-76
2021/07/04 07:04:47;;;;;;;9.75;8.75;;;19.80;99.90;;;;;;5052327;28;20037;-76
2021/07/04 07:07:13;;;;;;;10.10;8.15;;;20.20;99.90;;;;;;5052499;28;20025;-76
2021/07/04 07:09:38;;;;;;;9.68;8.63;;;20.40;99.90;;;;;;5050585;28;20654;-76
2021/07/04 07:12:04;;;;;;;10.20;8.50;;;20.10;99.90;;;;;;5052462;28;20078;-76
2021/07/04 07:14:29;;;;;;;10.63;8.30;;;20.10;99.90;;;;;;5050799;28;20044;-75
2021/07/04 07:16:55;;;;;;;11.45;8.55;;;20.10;99.90;;;;;;5050833;28;20025;-76
2021/07/04 07:19:20;;;;;;;9.30;8.15;;;20.10;99.90;;;;;;5051003;28;20555;-76
2021/07/04 07:21:46;;;;;;;10.23;8.80;;;20.30;99.90;;;;;;5052325;28;20029;-76
2021/07/04 07:24:11;;;;;;;9.57;8.10;;;20.60;99.90;;;;;;5050852;28;20032;-76
2021/07/04 07:26:37;;;;;;;8.95;8.05;;;20.90;99.90;;;;;;5050629;28;20040;-76
2021/07/04 07:29:03;;;;;;;9.10;8.00;;;21.10;99.90;;;;;;5050894;28;20123;-76
2021/07/04 07:31:31;;;;;;;8.90;7.88;;;21.20;99.90;;;;;;5050703;28;20463;-71
2021/07/04 07:33:57;;;;;;;9.38;8.40;;;21.40;99.90;;;;;;5052005;28;20029;-74
2021/07/04 07:36:22;;;;;;;9.32;8.32;;;21.40;99.90;;;;;;5050463;28;20117;-76
2021/07/04 07:38:48;;;;;;;9.75;8.52;;;21.50;99.90;;;;;;5052032;28;20100;-76
2021/07/04 07:41:13;;;;;;;9.07;8.18;;;21.80;99.90;;;;;;5052020;28;20056;-76
2021/07/04 07:43:39;;;;;;;9.48;8.35;;;21.60;99.90;;;;;;5051728;28;20637;-76
2021/07/04 07:46:04;;;;;;;8.50;7.63;;;21.50;99.90;;;;;;5050281;28;20049;-76
2021/07/04 07:48:30;;;;;;;9.45;8.13;;;21.40;99.90;;;;;;5051774;28;20032;-76
2021/07/04 07:50:55;;;;;;;9.93;8.77;;;21.80;99.90;;;;;;5051883;28;20475;-76
2021/07/04 07:53:21;;;;;;;10.57;8.20;;;22.00;99.90;;;;;;5050406;28;20032;-76
2021/07/04 07:55:46;;;;;;;10.10;9.00;;;22.30;99.90;;;;;;5050278;28;20025;-75
2021/07/04 07:58:12;;;;;;;8.95;7.97;;;22.00;99.90;;;;;;5051818;28;20104;-76
2021/07/04 08:00:37;;;;;;;9.43;8.48;;;21.90;99.90;;;;;;5050389;28;20036;-76
2021/07/04 08:03:03;;;;;;;10.30;8.80;;;21.90;99.90;;;;;;5051475;28;20422;-76
2021/07/04 08:05:29;;;;;;;9.57;8.38;;;22.20;99.90;;;;;;5051429;28;20060;-76
2021/07/04 08:07:55;;;;;;;10.18;8.82;;;22.50;99.90;;;;;;5050618;28;20114;-75
2021/07/04 08:10:21;;;;;;;10.35;8.48;;;22.20;99.90;;;;;;5051610;28;20112;-74
2021/07/04 08:12:46;;;;;;;11.00;9.25;;;22.30;99.90;;;;;;5050644;28;20122;-76
2021/07/04 08:15:12;;;;;;;10.85;9.73;;;22.50;99.90;;;;;;5053100;28;20025;-77
2021/07/04 08:17:38;;;;;;;10.85;8.60;;;22.10;99.90;;;;;;5053125;28;20025;-76
2021/07/04 08:20:05;;;;;;;9.50;8.50;;;22.30;99.90;;;;;;5052200;28;20029;-76
2021/07/04 08:22:31;;;;;;;10.73;9.63;;;22.20;99.90;;;;;;5055692;28;20024;-76
2021/07/04 08:24:57;;;;;;;10.30;9.20;;;22.10;99.90;;;;;;5055343;28;20108;-76
2021/07/04 08:27:22;;;;;;;9.30;8.30;;;22.00;99.90;;;;;;5055490;28;20027;-76
2021/07/04 08:29:48;;;;;;;11.05;9.10;;;22.20;99.90;;;;;;5055523;28;20051;-76
2021/07/04 08:32:13;;;;;;;9.98;8.93;;;22.80;99.90;;;;;;5054123;28;20025;-76
2021/07/04 08:34:39;;;;;;;11.18;9.32;;;23.00;99.90;;;;;;5055202;28;20029;-76
2021/07/04 08:37:04;;;;;;;11.15;9.15;;;22.40;99.90;;;;;;5054097;28;20037;-76
2021/07/04 08:39:31;;;;;;;9.95;8.50;;;22.60;99.90;;;;;;5055384;28;20024;-76
2021/07/04 08:41:57;;;;;;;9.70;8.70;;;22.70;99.90;;;;;;5055439;28;20450;-76
2021/07/04 08:44:23;;;;;;;11.48;9.65;;;22.90;99.90;;;;;;5055139;28;20079;-76
2021/07/04 08:46:48;;;;;;;9.65;8.23;;;23.10;99.90;;;;;;5053921;28;20494;-76
2021/07/04 08:49:14;;;;;;;9.13;8.23;;;23.20;99.90;;;;;;5055246;28;20124;-77
2021/07/04 08:51:40;;;;;;;10.82;9.00;;;23.30;99.90;;;;;;5055206;28;20033;-76
2021/07/04 08:54:06;;;;;;;10.10;8.95;;;23.60;99.90;;;;;;5053863;28;20021;-77
2021/07/04 08:56:32;;;;;;;10.70;8.35;;;23.30;99.90;;;;;;5054900;28;20028;-76
2021/07/04 08:58:57;;;;;;;10.77;9.68;;;23.50;99.90;;;;;;5055132;28;20699;-76
2021/07/04 09:01:25;;;;;;;10.38;8.73;;;23.30;99.90;;;;;;5055289;28;20155;-76
2021/07/04 09:03:54;;;;;;;10.20;8.65;;;23.20;99.90;;;;;;5054713;28;20116;-76
2021/07/04 09:06:42;;;;;;;11.55;8.60;;;23.40;99.90;;;;;;5053211;28;20517;-76
2021/07/04 09:09:18;;;;;;;13.63;8.80;;;23.90;99.90;;;;;;5054811;28;20021;-76
2021/07/04 09:12:12;;;;;;;;;;;24.00;99.90;;;;;;5055053;28;20020;-76
2021/07/04 09:14:43;;;;;;;9.52;8.63;;;24.30;99.90;;;;;;5053816;28;19905;-76
2021/07/04 09:17:11;;;;;;;9.88;8.80;;;24.20;99.90;;;;;;5053344;28;20036;-76
2021/07/04 09:19:40;;;;;;;9.77;8.88;;;24.30;99.90;;;;;;5054437;28;20037;-76
2021/07/04 09:22:10;;;;;;;9.80;8.63;;;24.00;99.90;;;;;;5054547;28;20020;-76
2021/07/04 09:24:42;;;;;;;9.50;8.50;;;24.10;99.90;;;;;;5054353;28;20491;-76
2021/07/04 09:27:10;;;;;;;9.07;8.07;;;24.00;99.90;;;;;;5047248;28;20441;-76
2021/07/04 09:29:50;;;;;;;9.88;8.48;;;24.20;99.90;;;;;;5053078;28;20025;-76
2021/07/04 09:32:19;;;;;;;9.43;8.35;;;23.70;99.90;;;;;;5053524;28;20025;-76
2021/07/04 09:35:05;;;;;;;9.23;8.25;;;23.90;99.90;;;;;;5055843;28;20052;-75
2021/07/04 09:37:36;;;;;;;10.13;9.13;;;23.90;99.90;;;;;;5054376;28;20126;-77
2021/07/04 09:40:20;;;;;;;9.32;8.15;;;23.60;99.90;;;;;;5054365;28;20158;-76
2021/07/04 09:42:53;;;;;;;9.52;8.25;;;23.90;99.90;;;;;;5041742;28;20467;-75
2021/07/04 09:45:20;;;;;;;8.77;7.88;;;24.10;99.90;;;;;;5052825;28;20106;-76
2021/07/04 09:47:57;;;;;;;8.70;7.90;;;24.00;99.90;;;;;;5055522;28;20029;-76
2021/07/04 09:50:25;;;;;;;10.95;9.40;;;24.00;99.90;;;;;;5053940;28;20021;-76
2021/07/04 09:53:00;;;;;;;9.30;8.40;;;24.20;99.90;;;;;;5054395;28;20142;-77
2021/07/04 09:55:27;;;;;;;12.82;8.55;;;24.10;99.90;;;;;;5054064;28;20021;-77
2021/07/04 09:57:59;;;;;;;9.50;8.48;;;24.10;99.90;;;;;;5054191;28;20522;-76
2021/07/04 10:00:27;;;;;;;9.43;8.43;;;23.80;99.90;;;;;;5053600;28;20037;-77
2021/07/04 10:03:19;;;;;;;10.93;8.90;;;24.00;99.90;;;;;;5053809;28;20078;-77
2021/07/04 10:05:59;;;;;;;9.45;7.90;;;23.70;99.90;;;;;;5043608;28;20482;-76
2021/07/04 10:08:39;;;;;;;10.95;9.85;;;23.60;99.90;;;;;;5053613;28;20025;-77
2021/07/04 10:11:05;;;;;;;14.20;10.60;;;23.60;99.90;;;;;;5053730;28;20025;-77
2021/07/04 10:13:32;;;;;;;11.65;10.45;;;23.60;99.90;;;;;;5053707;28;20025;-77
2021/07/04 10:15:59;;;;;;;10.75;9.52;;;23.70;99.90;;;;;;5053304;28;20028;-76
2021/07/04 10:18:25;;;;;;;10.43;9.35;;;24.00;99.90;;;;;;5052421;28;20558;-76
2021/07/04 10:20:52;;;;;;;9.20;8.23;;;24.00;99.90;;;;;;5053563;28;20032;-77
2021/07/04 10:23:21;;;;;;;10.10;9.10;;;24.40;99.90;;;;;;5052217;28;20050;-77
2021/07/04 10:25:48;;;;;;;11.05;9.98;;;24.50;99.90;;;;;;5060889;28;20044;-77
2021/07/04 10:28:29;;;;;;;10.10;9.10;;;24.40;99.90;;;;;;5053324;28;20502;-77
2021/07/04 10:30:56;;;;;;;10.38;8.35;;;23.90;99.90;;;;;;5052122;28;20030;-76
2021/07/04 10:33:32;;;;;;;10.27;8.65;;;24.10;99.90;;;;;;5053413;28;20021;-77
2021/07/04 10:36:04;;;;;;;11.23;8.80;;;24.30;99.90;;;;;;5052936;28;20386;-77
2021/07/04 10:38:46;;;;;;;9.80;8.80;;;24.60;99.90;;;;;;5053177;28;20036;-77
2021/07/04 10:41:33;;;;;;;11.68;9.38;;;24.80;99.90;;;;;;5053291;28;20021;-77
2021/07/04 10:44:11;;;;;;;11.23;8.75;;;24.60;99.90;;;;;;5052083;28;20024;-77
2021/07/04 10:46:43;;;;;;;9.13;8.20;;;24.90;99.90;;;;;;5051585;28;20491;-77
2021/07/04 10:49:15;;;;;;;8.73;7.43;;;25.10;99.90;;;;;;5040282;28;20475;-77
2021/07/04 10:52:00;;;;;;;8.73;7.82;;;24.80;99.90;;;;;;5052961;28;20459;-77
2021/07/04 10:54:45;;;;;;;8.13;7.33;;;24.90;99.90;;;;;;5052803;28;20028;-77
2021/07/04 10:57:15;;;;;;;8.25;7.00;;;25.70;99.90;;;;;;5051466;28;20029;-76
2021/07/04 10:59:59;;;;;;;8.02;7.22;;;26.00;99.90;;;;;;5052658;28;20029;-76
2021/07/04 11:02:59;;;;;;;7.97;7.18;;;26.00;99.90;;;;;;5051349;28;20029;-76
2021/07/04 11:05:31;;;;;;;7.88;7.03;;;25.10;99.90;;;;;;5039540;28;20490;-76
2021/07/04 11:07:56;;;;;;;8.10;6.38;;;25.20;99.90;;;;;;5052540;28;20021;-76
2021/07/04 11:10:27;;;;;;;7.13;6.47;;;25.80;99.90;;;;;;5052468;28;20021;-76
2021/07/04 11:13:17;;;;;;;8.00;6.75;;;25.60;99.90;;;;;;5052420;28;20023;-77
2021/07/04 11:15:50;;;;;;;6.53;5.93;;;25.80;99.90;;;;;;5049019;28;20037;-76
2021/07/04 11:18:20;;;;;;;7.07;5.88;;;26.60;99.90;;;;;;5051233;28;20021;-76
2021/07/04 11:20:50;;;;;;;6.30;5.70;;;26.40;99.90;;;;;;5052311;28;20036;-76
2021/07/04 11:23:25;;;;;;;6.60;6.00;;;26.50;99.90;;;;;;5052362;28;20017;-76
2021/07/04 11:26:10;;;;;;;7.07;6.32;;;26.70;99.90;;;;;;5050692;28;20127;-76
2021/07/04 11:28:37;;;;;;;8.23;5.93;;;27.10;99.90;;;;;;5051036;28;20029;-77
2021/07/04 11:31:21;;;;;;;6.35;5.75;;;27.10;99.90;;;;;;5051055;28;20025;-77
2021/07/04 11:33:48;;;;;;;7.22;6.53;;;26.90;99.90;;;;;;5050930;28;20062;-76
2021/07/04 11:36:26;;;;;;;8.63;6.05;;;26.90;99.90;;;;;;5050640;28;20032;-77
2021/07/04 11:39:10;;;;;;;8.55;6.38;;;27.10;99.90;;;;;;5052308;28;20379;-76
2021/07/04 11:41:49;;;;;;;6.53;5.93;;;26.60;99.90;;;;;;5052208;28;20021;-76
2021/07/04 11:44:21;;;;;;;7.82;6.50;;;26.50;99.90;;;;;;5038913;28;20376;-76
2021/07/04 11:46:48;;;;;;;6.40;5.75;;;26.70;99.90;;;;;;5052090;28;20017;-76
2021/07/04 11:49:17;;;;;;;6.38;5.65;;;26.30;99.90;;;;;;5050709;28;20403;-77
2021/07/04 11:51:48;;;;;;;7.40;6.13;;;26.40;99.90;;;;;;5050618;28;20062;-77
2021/07/04 11:54:19;;;;;;;6.47;5.70;;;26.20;99.90;;;;;;5052018;28;20029;-76
2021/07/04 11:57:30;;;;;;;8.13;6.10;;;26.90;99.90;;;;;;5051467;28;20040;-77
2021/07/04 12:00:01;;;;;;;6.47;5.82;;;26.80;99.90;;;;;;5050626;28;20538;-75
2021/07/04 12:02:27;;;;;;;6.32;5.65;;;26.40;99.90;;;;;;5051797;28;20036;-77
2021/07/04 12:04:53;;;;;;;7.28;5.90;;;26.50;99.90;;;;;;5050192;28;20081;-76
2021/07/04 12:07:27;;;;;;;6.15;5.38;;;26.30;99.90;;;;;;5031846;28;20057;-76
2021/07/04 12:09:56;;;;;;;7.22;5.57;;;26.30;99.90;;;;;;5031979;28;20021;-76
2021/07/04 12:12:28;;;;;;;6.18;5.22;;;26.60;99.90;;;;;;5030507;28;20048;-77
2021/07/04 12:15:00;;;;;;;6.03;5.00;;;26.60;99.90;;;;;;5031508;28;20025;-77
2021/07/04 12:17:30;;;;;;;5.18;4.68;;;26.70;99.90;;;;;;5031505;28;20057;-77
2021/07/04 12:20:23;;;;;;;5.50;5.00;;;26.30;99.90;;;;;;5018774;28;20120;-77
2021/07/04 12:22:50;;;;;;;5.93;5.35;;;26.30;99.90;;;;;;5032502;28;20034;-76
2021/07/04 12:25:18;;;;;;;5.82;5.32;;;26.20;99.90;;;;;;5036871;28;20061;-77
2021/07/04 12:27:53;;;;;;;5.85;4.80;;;26.10;99.90;;;;;;5045800;28;20426;-77
2021/07/04 12:30:28;;;;;;;5.22;4.80;;;26.50;99.90;;;;;;5030741;28;20501;-77
2021/07/04 12:33:14;;;;;;;5.15;4.65;;;26.60;99.90;;;;;;5019113;28;20025;-75
2021/07/04 12:35:43;;;;;;;6.25;4.68;;;26.60;99.90;;;;;;5030389;28;20105;-76
2021/07/04 12:38:15;;;;;;;4.75;4.30;;;26.70;99.90;;;;;;5030125;28;20025;-77
2021/07/04 12:40:58;;;;;;;4.47;4.07;;;26.80;99.90;;;;;;5031053;28;20648;-77